createdAt,value
2019-05-07T00:00:36.704Z,14.70
2019-05-07T00:03:05.166Z,13.30
2019-05-07T00:05:33.662Z,13.73
2019-05-07T00:08:03.139Z,13.08
2019-05-07T00:10:33.106Z,14.00
2019-05-07T00:13:02.331Z,12.03
2019-05-07T00:15:32.779Z,13.63
2019-05-07T00:18:03.197Z,13.35
2019-05-07T00:20:32.757Z,12.10
2019-05-07T00:23:02.978Z,12.30
2019-05-07T00:25:32.810Z,11.83
2019-05-07T00:28:02.767Z,13.48
2019-05-07T00:30:33.240Z,13.20
2019-05-07T00:33:02.743Z,13.90
2019-05-07T00:35:33.183Z,12.00
2019-05-07T00:38:03.389Z,13.10
2019-05-07T00:40:36.599Z,12.53
2019-05-07T00:43:18.660Z,14.37
2019-05-07T00:45:52.850Z,12.65
2019-05-07T00:48:23.384Z,12.07
2019-05-07T00:50:53.279Z,13.60
2019-05-07T00:53:23.725Z,13.85
2019-05-07T00:55:52.621Z,12.70
2019-05-07T00:58:26.316Z,11.80
2019-05-07T01:00:53.120Z,14.20
2019-05-07T01:03:22.280Z,15.35
2019-05-07T01:05:52.687Z,14.33
2019-05-07T01:08:22.631Z,12.00
2019-05-07T01:10:52.953Z,13.05
2019-05-07T01:13:23.427Z,13.10
2019-05-07T01:15:53.243Z,12.70
2019-05-07T01:18:23.326Z,13.48
2019-05-07T01:20:53.326Z,12.70
2019-05-07T01:23:22.839Z,12.10
2019-05-07T01:25:52.661Z,14.73
2019-05-07T01:28:22.363Z,14.95
2019-05-07T01:30:52.741Z,12.00
2019-05-07T01:33:42.348Z,13.98
2019-05-07T01:36:13.238Z,11.73
2019-05-07T01:38:42.698Z,11.50
2019-05-07T01:41:12.518Z,14.00
2019-05-07T01:43:42.942Z,12.95
2019-05-07T01:46:12.261Z,14.00
2019-05-07T01:48:42.950Z,13.80
2019-05-07T01:51:12.897Z,11.85
2019-05-07T01:53:42.983Z,14.55
2019-05-07T01:56:12.391Z,13.05
2019-05-07T01:58:42.480Z,12.47
2019-05-07T02:01:13.107Z,12.93
2019-05-07T02:03:59.067Z,13.22
2019-05-07T02:06:45.284Z,13.63
2019-05-07T02:09:18.261Z,12.90
2019-05-07T02:12:03.031Z,14.10
2019-05-07T02:14:32.985Z,14.43
2019-05-07T02:17:02.982Z,12.70
2019-05-07T02:19:32.975Z,13.62
2019-05-07T02:22:02.764Z,14.65
2019-05-07T02:24:33.706Z,16.70
2019-05-07T02:27:02.980Z,14.53
2019-05-07T02:29:32.398Z,14.77
2019-05-07T02:32:04.282Z,14.68
2019-05-07T02:34:34.318Z,16.90
2019-05-07T02:37:04.041Z,14.60
2019-05-07T02:39:48.889Z,16.73
2019-05-07T02:42:17.406Z,14.57
2019-05-07T02:44:59.186Z,17.82
2019-05-07T02:47:32.827Z,16.40
2019-05-07T02:50:04.072Z,17.10
2019-05-07T02:52:53.316Z,17.80
2019-05-07T02:55:33.652Z,16.55
2019-05-07T02:58:03.540Z,20.27
2019-05-07T03:00:33.335Z,19.10
2019-05-07T03:03:04.148Z,17.73
2019-05-07T03:05:34.896Z,19.33
2019-05-07T03:08:03.465Z,17.10
2019-05-07T03:10:34.142Z,19.43
2019-05-07T03:13:03.186Z,19.77
2019-05-07T03:15:33.458Z,20.65
2019-05-07T03:18:03.419Z,18.12
2019-05-07T03:20:34.932Z,16.23
2019-05-07T03:23:04.427Z,15.27
2019-05-07T03:25:34.524Z,16.20
2019-05-07T03:28:04.360Z,18.85
2019-05-07T03:30:37.483Z,17.00
2019-05-07T03:33:25.629Z,17.77
2019-05-07T03:35:56.100Z,15.72
2019-05-07T03:38:22.883Z,17.67
2019-05-07T03:40:53.159Z,14.70
2019-05-07T03:43:22.880Z,16.17
2019-05-07T03:45:53.998Z,16.50
2019-05-07T03:48:24.568Z,14.23
2019-05-07T03:50:53.364Z,15.30
2019-05-07T03:53:23.100Z,13.80
2019-05-07T03:55:53.791Z,15.67
2019-05-07T03:58:23.539Z,14.38
2019-05-07T04:00:53.553Z,14.57
2019-05-07T04:03:24.296Z,15.50
2019-05-07T04:05:53.278Z,14.20
2019-05-07T04:08:23.561Z,15.57
2019-05-07T04:10:53.786Z,15.60
2019-05-07T04:13:23.857Z,15.93
2019-05-07T04:15:52.985Z,16.80
2019-05-07T04:18:23.741Z,16.50
2019-05-07T04:20:54.018Z,14.50
2019-05-07T04:23:23.319Z,15.87
2019-05-07T04:25:54.602Z,15.10
2019-05-07T04:28:27.531Z,16.23
2019-05-07T04:30:57.041Z,17.47
2019-05-07T04:33:27.162Z,16.07
2019-05-07T04:36:03.160Z,14.90
2019-05-07T04:38:33.404Z,14.03
2019-05-07T04:41:03.793Z,16.25
2019-05-07T04:43:33.697Z,14.75
2019-05-07T04:46:03.176Z,16.33
2019-05-07T04:48:34.604Z,18.20
2019-05-07T04:51:04.974Z,14.20
2019-05-07T04:53:33.536Z,15.53
2019-05-07T04:56:03.394Z,15.87
2019-05-07T04:58:33.814Z,16.02
2019-05-07T05:01:03.655Z,15.27
2019-05-07T05:03:34.626Z,13.85
2019-05-07T05:06:02.847Z,14.70
2019-05-07T05:08:32.511Z,19.80
2019-05-07T05:11:03.376Z,16.02
2019-05-07T05:13:33.038Z,16.20
2019-05-07T05:16:03.496Z,14.60
2019-05-07T05:18:33.688Z,15.60
2019-05-07T05:21:09.473Z,16.70
2019-05-07T05:23:42.368Z,16.95
2019-05-07T05:26:12.561Z,16.77
2019-05-07T05:28:41.948Z,15.80
2019-05-07T05:31:12.521Z,15.80
2019-05-07T05:33:41.922Z,15.80
2019-05-07T05:36:12.695Z,15.98
2019-05-07T05:38:42.355Z,17.07
2019-05-07T05:41:12.341Z,18.02
2019-05-07T05:44:02.294Z,17.80
2019-05-07T05:46:32.146Z,18.30
2019-05-07T05:49:02.540Z,18.70
2019-05-07T05:51:32.526Z,17.57
2019-05-07T05:54:18.959Z,18.48
2019-05-07T05:56:54.949Z,16.50
2019-05-07T05:59:46.905Z,16.27
2019-05-07T06:02:06.368Z,19.77
2019-05-07T06:04:34.565Z,15.40
2019-05-07T06:07:22.681Z,22.80
2019-05-07T06:09:53.023Z,14.77
2019-05-07T06:12:32.768Z,14.25
2019-05-07T06:15:06.244Z,14.67
2019-05-07T06:17:39.340Z,14.78
2019-05-07T06:20:12.169Z,13.13
2019-05-07T06:22:42.552Z,14.30
2019-05-07T06:25:14.825Z,15.47
2019-05-07T06:27:43.109Z,13.30
2019-05-07T06:30:12.713Z,16.67
2019-05-07T06:32:43.026Z,11.63
2019-05-07T06:35:12.800Z,12.80
2019-05-07T06:37:42.864Z,13.13
2019-05-07T06:40:19.350Z,13.60
2019-05-07T06:43:03.220Z,10.73
2019-05-07T06:45:42.305Z,11.83
2019-05-07T06:48:12.633Z,9.40
2019-05-07T06:50:43.259Z,10.53
2019-05-07T06:53:12.118Z,9.13
2019-05-07T06:55:42.785Z,9.70
2019-05-07T06:58:12.310Z,10.38
2019-05-07T07:00:42.625Z,11.53
2019-05-07T07:03:18.715Z,11.07
2019-05-07T07:05:48.992Z,10.93
2019-05-07T07:08:23.024Z,9.60
2019-05-07T07:11:04.740Z,11.30
2019-05-07T07:13:33.301Z,9.73
2019-05-07T07:16:02.074Z,10.70
2019-05-07T07:18:32.268Z,9.63
2019-05-07T07:21:02.246Z,10.45
2019-05-07T07:23:32.358Z,8.90
2019-05-07T07:26:03.122Z,9.67
2019-05-07T07:28:32.705Z,10.05
2019-05-07T07:31:13.006Z,8.60
2019-05-07T07:33:49.152Z,8.83
2019-05-07T07:36:18.522Z,9.13
2019-05-07T07:38:47.176Z,8.13
2019-05-07T07:41:17.344Z,7.50
2019-05-07T07:43:46.093Z,10.75
2019-05-07T07:46:16.506Z,10.58
2019-05-07T07:48:44.880Z,9.10
2019-05-07T07:51:13.977Z,10.20
2019-05-07T07:53:42.762Z,10.40
2019-05-07T07:56:27.782Z,10.15
2019-05-07T07:59:03.888Z,11.00
2019-05-07T08:01:34.062Z,10.03
2019-05-07T08:04:02.980Z,9.38
2019-05-07T08:06:32.703Z,9.10
2019-05-07T08:09:02.201Z,9.53
2019-05-07T08:11:31.977Z,9.70
2019-05-07T08:14:02.321Z,9.70
2019-05-07T08:16:32.764Z,9.65
2019-05-07T08:19:02.959Z,8.43
2019-05-07T08:21:33.172Z,8.95
2019-05-07T08:24:02.869Z,9.50
2019-05-07T08:26:32.312Z,10.80
2019-05-07T08:29:02.946Z,8.70
2019-05-07T08:31:39.980Z,8.30
2019-05-07T08:34:19.153Z,8.30
2019-05-07T08:36:47.988Z,7.90
2019-05-07T08:39:16.516Z,8.13
2019-05-07T08:41:45.133Z,8.90
2019-05-07T08:44:15.744Z,9.13
2019-05-07T08:46:46.144Z,7.15
2019-05-07T08:49:16.427Z,8.10
2019-05-07T08:51:46.844Z,8.50
2019-05-07T08:54:15.308Z,7.58
2019-05-07T08:56:43.822Z,6.75
2019-05-07T08:59:12.582Z,6.10
2019-05-07T09:01:43.260Z,7.17
2019-05-07T09:04:13.499Z,5.40
2019-05-07T09:06:43.047Z,6.90
2019-05-07T09:09:14.779Z,6.60
2019-05-07T09:11:43.520Z,6.70
2019-05-07T09:14:12.653Z,6.90
2019-05-07T09:16:42.690Z,6.33
2019-05-07T09:19:12.810Z,6.60
2019-05-07T09:21:42.874Z,6.67
2019-05-07T09:24:12.158Z,6.27
2019-05-07T09:26:52.398Z,6.65
2019-05-07T09:29:28.741Z,6.40
2019-05-07T09:32:15.787Z,6.78
2019-05-07T09:34:45.916Z,6.03
2019-05-07T09:37:19.026Z,6.12
2019-05-07T09:39:47.576Z,7.25
2019-05-07T09:42:16.133Z,6.10
2019-05-07T09:44:44.599Z,6.63
2019-05-07T09:47:13.206Z,7.15
2019-05-07T09:49:41.968Z,6.40
2019-05-07T09:52:12.276Z,7.58
2019-05-07T09:54:42.699Z,6.20
2019-05-07T09:57:27.325Z,6.60
2019-05-07T09:59:42.613Z,7.50
2019-05-07T10:02:12.258Z,7.70
2019-05-07T10:04:41.782Z,7.13
2019-05-07T10:07:12.601Z,6.30
2019-05-07T10:09:42.594Z,6.77
2019-05-07T10:12:15.628Z,6.30
2019-05-07T10:14:44.158Z,6.45
2019-05-07T10:17:17.676Z,6.40
2019-05-07T10:19:46.217Z,6.60
2019-05-07T10:22:14.811Z,6.47
2019-05-07T10:24:43.441Z,6.75
2019-05-07T10:27:13.204Z,8.40
2019-05-07T10:29:42.747Z,5.80
2019-05-07T10:32:12.799Z,5.60
2019-05-07T10:34:42.248Z,5.70
2019-05-07T10:37:12.012Z,5.43
2019-05-07T10:39:42.898Z,6.10
2019-05-07T10:42:12.309Z,5.70
2019-05-07T10:44:45.601Z,5.90
2019-05-07T10:47:31.808Z,5.90
2019-05-07T10:50:31.733Z,5.43
2019-05-07T10:52:48.692Z,6.83
2019-05-07T10:55:17.296Z,6.00
2019-05-07T10:57:45.842Z,5.75
2019-05-07T11:00:17.804Z,6.07
2019-05-07T11:02:46.339Z,6.00
2019-05-07T11:05:15.712Z,5.30
2019-05-07T11:07:44.288Z,7.22
2019-05-07T11:10:13.060Z,6.50
2019-05-07T11:12:42.497Z,5.50
2019-05-07T11:15:12.660Z,5.70
2019-05-07T11:17:46.062Z,6.00
2019-05-07T11:20:15.709Z,5.63
2019-05-07T11:22:44.269Z,5.40
2019-05-07T11:25:12.892Z,5.50
2019-05-07T11:27:42.111Z,5.67
2019-05-07T11:30:12.763Z,6.10
2019-05-07T11:32:42.983Z,5.60
2019-05-07T11:35:14.652Z,5.80
2019-05-07T11:37:44.138Z,5.85
2019-05-07T11:40:13.173Z,6.83
2019-05-07T11:42:58.475Z,5.50
2019-05-07T11:45:28.667Z,6.23
2019-05-07T11:47:57.198Z,6.47
2019-05-07T11:50:36.688Z,5.93
2019-05-07T11:53:12.368Z,6.60
2019-05-07T11:55:42.063Z,5.87
2019-05-07T11:58:12.666Z,6.03
2019-05-07T12:00:42.912Z,5.53
2019-05-07T12:03:11.443Z,6.42
2019-05-07T12:05:42.132Z,5.40
2019-05-07T12:08:10.400Z,7.10
2019-05-07T12:10:38.860Z,5.55
2019-05-07T12:13:07.428Z,5.80
2019-05-07T12:15:36.412Z,6.40
2019-05-07T12:18:05.056Z,6.10
2019-05-07T12:20:33.581Z,5.43
2019-05-07T12:23:02.809Z,5.80
2019-05-07T12:25:32.173Z,5.77
2019-05-07T12:28:02.415Z,8.55
2019-05-07T12:30:48.814Z,6.10
2019-05-07T12:33:24.715Z,5.80
2019-05-07T12:35:53.436Z,6.12
2019-05-07T12:38:22.063Z,6.25
2019-05-07T12:40:52.421Z,7.17
2019-05-07T12:43:20.987Z,5.47
2019-05-07T12:45:49.522Z,5.83
2019-05-07T12:48:18.053Z,5.30
2019-05-07T12:50:46.689Z,5.03
2019-05-07T12:53:19.661Z,5.40
2019-05-07T12:55:56.176Z,6.20
2019-05-07T12:58:24.718Z,5.13
2019-05-07T13:00:55.070Z,5.70
2019-05-07T13:03:28.287Z,5.73
2019-05-07T13:05:56.851Z,6.10
2019-05-07T13:08:25.381Z,5.80
2019-05-07T13:10:53.984Z,6.10
2019-05-07T13:13:22.679Z,5.77
2019-05-07T13:15:51.817Z,5.70
2019-05-07T13:18:22.493Z,5.47
2019-05-07T13:20:51.902Z,5.93
2019-05-07T13:23:22.490Z,5.57
2019-05-07T13:25:52.240Z,5.30
2019-05-07T13:28:20.842Z,5.50
2019-05-07T13:30:49.380Z,4.70
2019-05-07T13:33:18.576Z,5.03
2019-05-07T13:35:47.739Z,5.80
2019-05-07T13:38:21.194Z,6.85
2019-05-07T13:40:53.093Z,5.50
2019-05-07T13:43:31.901Z,5.80
2019-05-07T13:46:12.082Z,5.47
2019-05-07T13:48:45.548Z,5.65
2019-05-07T13:51:12.975Z,5.12
2019-05-07T13:53:42.768Z,5.65
2019-05-07T13:56:12.883Z,5.50
2019-05-07T13:58:42.810Z,5.20
2019-05-07T14:01:13.188Z,5.30
2019-05-07T14:03:41.863Z,5.10
2019-05-07T14:06:12.657Z,4.90
2019-05-07T14:08:42.391Z,5.60
2019-05-07T14:11:12.254Z,5.35
2019-05-07T14:13:43.463Z,5.60
2019-05-07T14:16:13.120Z,5.35
2019-05-07T14:18:41.748Z,5.28
2019-05-07T14:21:12.811Z,5.50
2019-05-07T14:23:42.650Z,5.50
2019-05-07T14:26:10.747Z,5.50
2019-05-07T14:28:42.371Z,5.00
2019-05-07T14:31:12.288Z,5.20
2019-05-07T14:33:42.633Z,5.33
2019-05-07T14:36:31.973Z,5.80
2019-05-07T14:39:02.468Z,5.37
2019-05-07T14:41:32.574Z,6.62
2019-05-07T14:44:02.911Z,5.60
2019-05-07T14:46:44.463Z,5.90
2019-05-07T14:49:02.764Z,5.00
2019-05-07T14:51:32.594Z,5.23
2019-05-07T14:54:01.832Z,6.00
2019-05-07T14:56:32.348Z,6.03
2019-05-07T14:59:02.279Z,7.10
2019-05-07T15:01:31.153Z,6.33
2019-05-07T15:03:59.756Z,4.93
2019-05-07T15:06:28.403Z,4.90
2019-05-07T15:08:57.063Z,5.20
2019-05-07T15:11:25.691Z,5.57
2019-05-07T15:13:54.351Z,4.87
2019-05-07T15:16:23.068Z,5.30
2019-05-07T15:18:56.549Z,6.23
2019-05-07T15:21:25.336Z,5.60
2019-05-07T15:23:55.233Z,5.03
2019-05-07T15:26:24.291Z,4.97
2019-05-07T15:29:03.699Z,5.20
2019-05-07T15:31:39.724Z,4.37
2019-05-07T15:34:08.268Z,4.60
2019-05-07T15:36:36.799Z,4.80
2019-05-07T15:39:06.200Z,4.40
2019-05-07T15:41:34.803Z,4.13
2019-05-07T15:44:03.415Z,4.40
2019-05-07T15:46:32.289Z,4.70
2019-05-07T15:49:01.848Z,5.47
2019-05-07T15:51:32.675Z,5.50
2019-05-07T15:54:03.384Z,5.00
2019-05-07T15:56:32.389Z,5.70
2019-05-07T15:59:02.239Z,5.17
2019-05-07T16:01:30.872Z,5.80
2019-05-07T16:03:59.335Z,5.40
2019-05-07T16:06:27.890Z,5.30
2019-05-07T16:08:58.058Z,4.57
2019-05-07T16:11:26.611Z,5.00
2019-05-07T16:14:05.593Z,5.40
2019-05-07T16:16:35.952Z,6.00
2019-05-07T16:19:06.777Z,5.70
2019-05-07T16:21:35.352Z,5.28
2019-05-07T16:24:04.278Z,5.37
2019-05-07T16:26:32.838Z,5.80
2019-05-07T16:29:04.296Z,5.45
2019-05-07T16:31:33.166Z,5.10
2019-05-07T16:34:02.662Z,5.20
2019-05-07T16:36:32.875Z,6.00
2019-05-07T16:39:03.488Z,5.50
2019-05-07T16:41:31.952Z,5.05
2019-05-07T16:44:02.726Z,5.43
2019-05-07T16:46:30.753Z,5.43
2019-05-07T16:48:59.247Z,5.30
2019-05-07T16:51:27.704Z,5.83
2019-05-07T16:53:56.168Z,5.72
2019-05-07T16:56:24.720Z,6.00
2019-05-07T16:58:54.897Z,5.80
2019-05-07T17:01:24.705Z,6.30
2019-05-07T17:03:57.341Z,5.40
2019-05-07T17:06:25.907Z,5.43
2019-05-07T17:08:56.104Z,5.57
2019-05-07T17:11:24.709Z,5.95
2019-05-07T17:13:53.239Z,6.43
2019-05-07T17:16:22.875Z,5.00
2019-05-07T17:18:51.980Z,5.77
2019-05-07T17:21:21.828Z,4.80
2019-05-07T17:23:51.896Z,5.17
2019-05-07T17:26:20.671Z,6.10
2019-05-07T17:28:49.216Z,5.00
2019-05-07T17:31:17.775Z,5.20
2019-05-07T17:33:46.322Z,5.00
2019-05-07T17:36:14.916Z,5.50
2019-05-07T17:38:43.486Z,5.33
2019-05-07T17:41:18.321Z,5.40
2019-05-07T17:43:42.287Z,5.08
2019-05-07T17:46:12.293Z,5.20
2019-05-07T17:48:43.800Z,5.58
2019-05-07T17:51:13.972Z,4.80
2019-05-07T17:53:56.577Z,5.12
2019-05-07T17:56:12.878Z,5.15
2019-05-07T17:58:42.638Z,5.37
2019-05-07T18:01:11.381Z,5.60
2019-05-07T18:03:42.814Z,5.35
2019-05-07T18:06:12.520Z,4.80
2019-05-07T18:08:41.197Z,5.40
2019-05-07T18:11:20.322Z,5.70
2019-05-07T18:13:40.004Z,5.93
2019-05-07T18:16:15.736Z,8.50
2019-05-07T18:18:44.239Z,7.83
2019-05-07T18:21:12.764Z,8.07
2019-05-07T18:23:41.287Z,7.37
2019-05-07T18:26:09.866Z,8.97
2019-05-07T18:28:38.521Z,7.70
2019-05-07T18:31:06.999Z,7.87
2019-05-07T18:33:42.966Z,7.80
2019-05-07T18:36:12.131Z,9.60
2019-05-07T18:38:42.383Z,8.90
2019-05-07T18:41:12.191Z,8.77
2019-05-07T18:43:42.227Z,10.03
2019-05-07T18:46:12.861Z,9.33
2019-05-07T18:48:42.653Z,9.63
2019-05-07T18:51:12.200Z,9.25
2019-05-07T18:53:42.521Z,7.67
2019-05-07T18:56:12.625Z,11.68
2019-05-07T18:58:43.052Z,9.10
2019-05-07T19:01:13.248Z,10.93
2019-05-07T19:03:42.099Z,9.77
2019-05-07T19:06:13.382Z,8.43
2019-05-07T19:08:44.834Z,9.10
2019-05-07T19:11:13.510Z,8.43
2019-05-07T19:13:42.233Z,9.25
2019-05-07T19:16:12.505Z,8.07
2019-05-07T19:18:43.133Z,9.15
2019-05-07T19:21:11.851Z,7.83
2019-05-07T19:23:42.386Z,7.92
2019-05-07T19:26:13.093Z,6.40
2019-05-07T19:28:41.408Z,6.90
2019-05-07T19:31:12.289Z,8.20
2019-05-07T19:33:41.941Z,11.12
2019-05-07T19:36:10.799Z,12.17
2019-05-07T19:38:39.359Z,8.33
2019-05-07T19:41:07.908Z,8.90
2019-05-07T19:43:36.478Z,10.85
2019-05-07T19:46:05.100Z,8.17
2019-05-07T19:48:33.713Z,10.23
2019-05-07T19:51:02.875Z,10.45
2019-05-07T19:53:32.676Z,7.60
2019-05-07T19:56:18.514Z,7.80
2019-05-07T19:58:47.220Z,7.93
2019-05-07T20:01:17.411Z,10.85
2019-05-07T20:03:46.045Z,7.83
2019-05-07T20:06:14.579Z,8.03
2019-05-07T20:08:43.725Z,8.15
2019-05-07T20:11:17.172Z,8.10
2019-05-07T20:13:46.413Z,7.80
2019-05-07T20:16:19.361Z,8.05
2019-05-07T20:18:48.266Z,9.10
2019-05-07T20:21:16.814Z,9.53
2019-05-07T20:23:45.273Z,9.30
2019-05-07T20:26:13.909Z,8.43
2019-05-07T20:28:42.554Z,8.85
2019-05-07T20:31:12.188Z,10.40
2019-05-07T20:33:42.272Z,8.75
2019-05-07T20:36:11.098Z,8.20
2019-05-07T20:38:39.668Z,7.87
2019-05-07T20:41:09.896Z,8.75
2019-05-07T20:43:38.437Z,9.40
2019-05-07T20:46:07.077Z,8.23
2019-05-07T20:48:35.661Z,8.43
2019-05-07T20:51:04.145Z,9.65
2019-05-07T20:53:52.408Z,8.00
2019-05-07T20:56:22.820Z,7.70
2019-05-07T20:58:52.062Z,8.43
2019-05-07T21:01:22.133Z,8.80
2019-05-07T21:03:52.693Z,8.93
2019-05-07T21:06:22.482Z,9.18
2019-05-07T21:08:51.802Z,9.47
2019-05-07T21:11:22.581Z,8.40
2019-05-07T21:13:52.342Z,9.50
2019-05-07T21:16:22.133Z,7.37
2019-05-07T21:18:52.801Z,10.13
2019-05-07T21:21:22.046Z,9.70
2019-05-07T21:23:52.689Z,9.50
2019-05-07T21:26:22.468Z,9.45
2019-05-07T21:28:52.835Z,12.43
2019-05-07T21:31:22.778Z,9.87
2019-05-07T21:33:52.324Z,11.50
2019-05-07T21:36:22.875Z,11.30
2019-05-07T21:38:51.971Z,11.60
2019-05-07T21:41:22.752Z,17.90
2019-05-07T21:43:52.874Z,13.98
2019-05-07T21:46:22.345Z,13.57
2019-05-07T21:48:51.784Z,14.47
2019-05-07T21:51:22.887Z,15.20
2019-05-07T21:53:56.260Z,12.60
2019-05-07T21:56:29.143Z,12.00
2019-05-07T21:59:03.146Z,12.80
2019-05-07T22:01:33.424Z,12.20
2019-05-07T22:04:02.067Z,11.10
2019-05-07T22:06:31.058Z,11.97
2019-05-07T22:09:01.568Z,10.50
2019-05-07T22:11:32.153Z,10.70
2019-05-07T22:14:02.124Z,10.75
2019-05-07T22:16:32.785Z,12.53
2019-05-07T22:19:02.612Z,11.17
2019-05-07T22:21:33.925Z,10.25
2019-05-07T22:24:02.778Z,11.13
2019-05-07T22:26:32.247Z,10.73
2019-05-07T22:29:03.118Z,10.63
2019-05-07T22:31:32.992Z,11.80
2019-05-07T22:34:03.229Z,12.03
2019-05-07T22:36:32.643Z,11.20
2019-05-07T22:39:02.012Z,13.05
2019-05-07T22:41:31.892Z,13.10
2019-05-07T22:44:02.420Z,11.57
2019-05-07T22:46:32.690Z,10.63
2019-05-07T22:49:02.904Z,12.07
2019-05-07T22:51:31.260Z,10.70
2019-05-07T22:53:59.813Z,10.43
2019-05-07T22:56:35.014Z,11.33
2019-05-07T22:59:00.299Z,11.48
2019-05-07T23:01:28.757Z,10.75
2019-05-07T23:03:57.245Z,11.85
2019-05-07T23:06:25.792Z,10.68
2019-05-07T23:08:54.283Z,11.75
2019-05-07T23:11:23.092Z,11.40
2019-05-07T23:13:54.373Z,11.53
2019-05-07T23:16:23.217Z,10.60
2019-05-07T23:18:51.821Z,12.70
2019-05-07T23:21:24.265Z,11.30
2019-05-07T23:23:52.639Z,11.83
2019-05-07T23:26:23.158Z,12.30
2019-05-07T23:28:51.926Z,14.57
2019-05-07T23:31:22.653Z,12.17
2019-05-07T23:33:52.372Z,11.05
2019-05-07T23:36:22.445Z,12.77
2019-05-07T23:38:52.065Z,11.73
2019-05-07T23:41:22.447Z,11.60
2019-05-07T23:44:08.702Z,11.90
2019-05-07T23:46:37.324Z,12.18
2019-05-07T23:49:05.873Z,14.07
2019-05-07T23:51:34.434Z,11.90
2019-05-07T23:54:02.988Z,12.27
2019-05-07T23:56:32.923Z,11.97
2019-05-07T23:59:02.030Z,14.80
